sensor_id;sensor_type;location;lat;lon;timestamp;pressure;altitude;pressure_sealevel;temperature;humidity
20043;BME280;10182;52.896;6.496;2023-05-23T00:04:02;101598.25;;;12.93;100.00
20043;BME280;10182;52.896;6.496;2023-05-23T00:09:03;101598.13;;;12.96;100.00
20043;BME280;10182;52.896;6.496;2023-05-23T00:14:06;101594.88;;;12.89;100.00
20043;BME280;10182;52.896;6.496;2023-05-23T00:19:09;101600.75;;;12.75;100.00
20043;BME280;10182;52.896;6.496;2023-05-23T00:24:10;101612.31;;;12.74;100.00
20043;BME280;10182;52.896;6.496;2023-05-23T00:29:14;101624.13;;;12.67;100.00
20043;BME280;10182;52.896;6.496;2023-05-23T00:34:16;101610.72;;;12.70;100.00
20043;BME280;10182;52.896;6.496;2023-05-23T00:39:18;101629.66;;;12.62;100.00
20043;BME280;10182;52.896;6.496;2023-05-23T00:44:21;101617.53;;;12.55;100.00
20043;BME280;10182;52.896;6.496;2023-05-23T00:49:23;101634.22;;;12.59;100.00
20043;BME280;10182;52.896;6.496;2023-05-23T00:54:27;101641.41;;;12.57;100.00
20043;BME280;10182;52.896;6.496;2023-05-23T00:59:32;101638.72;;;12.57;100.00
20043;BME280;10182;52.896;6.496;2023-05-23T01:04:36;101638.88;;;12.53;100.00
20043;BME280;10182;52.896;6.496;2023-05-23T01:09:38;101646.78;;;12.55;100.00
20043;BME280;10182;52.896;6.496;2023-05-23T01:14:48;101650.28;;;12.56;100.00
20043;BME280;10182;52.896;6.496;2023-05-23T01:19:58;101652.94;;;12.56;100.00
20043;BME280;10182;52.896;6.496;2023-05-23T01:25:08;101659.59;;;12.44;100.00
20043;BME280;10182;52.896;6.496;2023-05-23T01:30:17;101664.19;;;12.40;100.00
20043;BME280;10182;52.896;6.496;2023-05-23T01:35:23;101675.19;;;12.31;100.00
20043;BME280;10182;52.896;6.496;2023-05-23T01:40:25;101675.06;;;12.34;100.00
20043;BME280;10182;52.896;6.496;2023-05-23T01:45:29;101673.56;;;12.27;100.00
20043;BME280;10182;52.896;6.496;2023-05-23T01:50:32;101675.59;;;12.20;100.00
20043;BME280;10182;52.896;6.496;2023-05-23T01:55:34;101682.28;;;12.07;100.00
20043;BME280;10182;52.896;6.496;2023-05-23T02:00:37;101689.63;;;12.00;100.00
20043;BME280;10182;52.896;6.496;2023-05-23T02:05:39;101701.81;;;11.80;100.00
20043;BME280;10182;52.896;6.496;2023-05-23T02:10:40;101703.63;;;11.80;100.00
20043;BME280;10182;52.896;6.496;2023-05-23T02:15:43;101713.47;;;11.76;100.00
20043;BME280;10182;52.896;6.496;2023-05-23T02:20:45;101711.22;;;11.65;100.00
20043;BME280;10182;52.896;6.496;2023-05-23T02:25:47;101725.50;;;11.61;100.00
20043;BME280;10182;52.896;6.496;2023-05-23T02:30:50;101711.50;;;11.58;100.00
20043;BME280;10182;52.896;6.496;2023-05-23T02:35:52;101728.41;;;11.54;100.00
20043;BME280;10182;52.896;6.496;2023-05-23T02:40:54;101727.69;;;11.50;100.00
20043;BME280;10182;52.896;6.496;2023-05-23T02:45:58;101730.69;;;11.39;100.00
20043;BME280;10182;52.896;6.496;2023-05-23T02:50:59;101743.59;;;11.50;100.00
20043;BME280;10182;52.896;6.496;2023-05-23T02:56:01;101741.09;;;11.45;100.00
20043;BME280;10182;52.896;6.496;2023-05-23T03:01:04;101734.97;;;11.43;100.00
20043;BME280;10182;52.896;6.496;2023-05-23T03:06:07;101737.56;;;11.45;100.00
20043;BME280;10182;52.896;6.496;2023-05-23T03:11:13;101747.47;;;11.40;100.00
20043;BME280;10182;52.896;6.496;2023-05-23T03:16:17;101739.75;;;11.33;100.00
20043;BME280;10182;52.896;6.496;2023-05-23T03:21:18;101756.63;;;11.31;100.00
20043;BME280;10182;52.896;6.496;2023-05-23T03:26:20;101751.25;;;11.32;100.00
20043;BME280;10182;52.896;6.496;2023-05-23T03:31:23;101768.97;;;11.32;100.00
20043;BME280;10182;52.896;6.496;2023-05-23T03:36:25;101754.16;;;11.25;100.00
20043;BME280;10182;52.896;6.496;2023-05-23T03:41:27;101766.72;;;11.20;100.00
20043;BME280;10182;52.896;6.496;2023-05-23T03:46:30;101767.34;;;11.28;100.00
20043;BME280;10182;52.896;6.496;2023-05-23T03:51:33;101774.28;;;11.32;100.00
20043;BME280;10182;52.896;6.496;2023-05-23T03:56:34;101773.63;;;11.25;100.00
20043;BME280;10182;52.896;6.496;2023-05-23T04:01:37;101785.28;;;11.20;100.00
20043;BME280;10182;52.896;6.496;2023-05-23T04:06:41;101774.53;;;11.24;100.00
20043;BME280;10182;52.896;6.496;2023-05-23T04:11:43;101794.56;;;11.33;100.00
20043;BME280;10182;52.896;6.496;2023-05-23T04:16:48;101786.88;;;11.25;100.00
20043;BME280;10182;52.896;6.496;2023-05-23T04:21:49;101787.84;;;11.23;100.00
20043;BME280;10182;52.896;6.496;2023-05-23T04:26:51;101794.09;;;11.20;100.00
20043;BME280;10182;52.896;6.496;2023-05-23T04:31:56;101814.69;;;11.12;100.00
20043;BME280;10182;52.896;6.496;2023-05-23T04:36:58;101812.22;;;11.06;100.00
20043;BME280;10182;52.896;6.496;2023-05-23T04:42:01;101816.78;;;11.02;100.00
20043;BME280;10182;52.896;6.496;2023-05-23T04:47:05;101821.25;;;11.00;100.00
20043;BME280;10182;52.896;6.496;2023-05-23T04:52:08;101830.03;;;11.02;100.00
20043;BME280;10182;52.896;6.496;2023-05-23T04:57:10;101840.13;;;10.89;100.00
20043;BME280;10182;52.896;6.496;2023-05-23T05:02:13;101844.63;;;10.87;100.00
20043;BME280;10182;52.896;6.496;2023-05-23T05:07:15;101862.88;;;10.98;100.00
20043;BME280;10182;52.896;6.496;2023-05-23T05:12:19;101863.88;;;10.94;100.00
20043;BME280;10182;52.896;6.496;2023-05-23T05:17:22;101861.53;;;10.83;100.00
20043;BME280;10182;52.896;6.496;2023-05-23T05:22:25;101875.59;;;10.85;100.00
20043;BME280;10182;52.896;6.496;2023-05-23T05:27:26;101884.75;;;10.75;100.00
20043;BME280;10182;52.896;6.496;2023-05-23T05:32:29;101886.72;;;10.68;100.00
20043;BME280;10182;52.896;6.496;2023-05-23T05:37:32;101907.22;;;10.61;100.00
20043;BME280;10182;52.896;6.496;2023-05-23T05:42:34;101913.50;;;10.57;100.00
20043;BME280;10182;52.896;6.496;2023-05-23T05:47:37;101926.38;;;10.38;100.00
20043;BME280;10182;52.896;6.496;2023-05-23T05:52:40;101927.41;;;10.32;100.00
20043;BME280;10182;52.896;6.496;2023-05-23T05:57:41;101929.13;;;10.35;100.00
20043;BME280;10182;52.896;6.496;2023-05-23T06:02:45;101930.09;;;10.31;100.00
20043;BME280;10182;52.896;6.496;2023-05-23T06:07:47;101928.00;;;10.44;100.00
20043;BME280;10182;52.896;6.496;2023-05-23T06:12:49;101945.84;;;10.37;100.00
20043;BME280;10182;52.896;6.496;2023-05-23T06:17:52;101948.44;;;10.39;100.00
20043;BME280;10182;52.896;6.496;2023-05-23T06:22:54;101951.31;;;10.29;100.00
20043;BME280;10182;52.896;6.496;2023-05-23T06:27:56;101952.75;;;10.43;100.00
20043;BME280;10182;52.896;6.496;2023-05-23T06:32:59;101956.56;;;10.31;100.00
20043;BME280;10182;52.896;6.496;2023-05-23T06:38:00;101966.22;;;10.35;100.00
20043;BME280;10182;52.896;6.496;2023-05-23T06:43:02;101966.06;;;10.40;100.00
20043;BME280;10182;52.896;6.496;2023-05-23T06:48:05;101976.44;;;10.49;100.00
20043;BME280;10182;52.896;6.496;2023-05-23T06:53:07;101977.28;;;10.49;100.00
20043;BME280;10182;52.896;6.496;2023-05-23T06:58:08;101983.53;;;10.48;100.00
20043;BME280;10182;52.896;6.496;2023-05-23T07:03:12;102003.13;;;10.41;100.00
20043;BME280;10182;52.896;6.496;2023-05-23T07:08:13;101999.75;;;10.36;100.00
20043;BME280;10182;52.896;6.496;2023-05-23T07:13:15;101987.97;;;10.46;100.00
20043;BME280;10182;52.896;6.496;2023-05-23T07:18:19;102002.06;;;10.48;100.00
20043;BME280;10182;52.896;6.496;2023-05-23T07:23:22;102020.34;;;10.59;100.00
20043;BME280;10182;52.896;6.496;2023-05-23T07:28:24;102011.97;;;10.75;100.00
20043;BME280;10182;52.896;6.496;2023-05-23T07:33:27;101992.84;;;10.95;100.00
20043;BME280;10182;52.896;6.496;2023-05-23T07:38:28;101986.91;;;10.85;100.00
20043;BME280;10182;52.896;6.496;2023-05-23T07:43:30;102001.88;;;10.88;100.00
20043;BME280;10182;52.896;6.496;2023-05-23T07:48:33;102020.47;;;10.86;100.00
20043;BME280;10182;52.896;6.496;2023-05-23T07:53:35;102011.06;;;10.74;100.00
20043;BME280;10182;52.896;6.496;2023-05-23T07:58:39;102024.72;;;10.92;100.00
20043;BME280;10182;52.896;6.496;2023-05-23T08:03:42;102026.09;;;11.07;100.00
20043;BME280;10182;52.896;6.496;2023-05-23T08:08:43;102016.31;;;11.09;100.00
20043;BME280;10182;52.896;6.496;2023-05-23T08:13:45;102028.78;;;11.05;100.00
20043;BME280;10182;52.896;6.496;2023-05-23T08:18:48;102013.38;;;11.20;100.00
20043;BME280;10182;52.896;6.496;2023-05-23T08:23:50;102042.03;;;11.37;100.00
20043;BME280;10182;52.896;6.496;2023-05-23T08:28:52;102038.31;;;11.42;100.00
20043;BME280;10182;52.896;6.496;2023-05-23T08:33:55;102024.38;;;11.65;100.00
20043;BME280;10182;52.896;6.496;2023-05-23T08:38:57;102037.31;;;11.76;100.00
20043;BME280;10182;52.896;6.496;2023-05-23T08:43:58;102045.69;;;12.21;100.00
20043;BME280;10182;52.896;6.496;2023-05-23T08:49:02;102043.47;;;12.07;100.00
20043;BME280;10182;52.896;6.496;2023-05-23T08:54:04;102034.81;;;12.00;100.00
20043;BME280;10182;52.896;6.496;2023-05-23T08:59:08;102043.63;;;12.56;100.00
20043;BME280;10182;52.896;6.496;2023-05-23T09:04:13;102058.53;;;12.60;100.00
20043;BME280;10182;52.896;6.496;2023-05-23T09:09:15;102056.41;;;12.69;100.00
20043;BME280;10182;52.896;6.496;2023-05-23T09:14:17;102055.13;;;12.81;100.00
20043;BME280;10182;52.896;6.496;2023-05-23T09:19:21;102074.22;;;12.93;100.00
20043;BME280;10182;52.896;6.496;2023-05-23T09:24:22;102066.44;;;12.36;100.00
20043;BME280;10182;52.896;6.496;2023-05-23T09:29:24;102066.16;;;12.17;100.00
20043;BME280;10182;52.896;6.496;2023-05-23T09:34:27;102064.19;;;12.24;100.00
20043;BME280;10182;52.896;6.496;2023-05-23T09:39:29;102065.75;;;13.07;100.00
20043;BME280;10182;52.896;6.496;2023-05-23T09:44:31;102078.03;;;13.36;100.00
20043;BME280;10182;52.896;6.496;2023-05-23T09:49:34;102074.34;;;12.90;100.00
20043;BME280;10182;52.896;6.496;2023-05-23T09:54:36;102076.09;;;12.91;100.00
20043;BME280;10182;52.896;6.496;2023-05-23T09:59:41;102093.69;;;12.95;100.00
20043;BME280;10182;52.896;6.496;2023-05-23T10:04:45;102083.78;;;12.46;100.00
20043;BME280;10182;52.896;6.496;2023-05-23T10:09:53;102094.66;;;12.65;100.00
20043;BME280;10182;52.896;6.496;2023-05-23T10:14:58;102093.13;;;13.10;100.00
20043;BME280;10182;52.896;6.496;2023-05-23T10:20:08;102085.41;;;12.50;100.00
20043;BME280;10182;52.896;6.496;2023-05-23T10:25:11;102105.66;;;12.81;100.00
20043;BME280;10182;52.896;6.496;2023-05-23T10:30:14;102109.59;;;12.69;100.00
20043;BME280;10182;52.896;6.496;2023-05-23T10:35:23;102103.84;;;12.82;100.00
20043;BME280;10182;52.896;6.496;2023-05-23T10:40:30;102097.25;;;13.19;100.00
20043;BME280;10182;52.896;6.496;2023-05-23T10:45:39;102106.44;;;12.85;100.00
20043;BME280;10182;52.896;6.496;2023-05-23T10:50:44;102108.72;;;12.96;100.00
20043;BME280;10182;52.896;6.496;2023-05-23T10:55:47;102123.56;;;13.27;100.00
20043;BME280;10182;52.896;6.496;2023-05-23T11:00:51;102116.78;;;13.18;100.00
20043;BME280;10182;52.896;6.496;2023-05-23T11:05:55;102127.31;;;13.21;100.00
20043;BME280;10182;52.896;6.496;2023-05-23T11:10:58;102129.38;;;13.13;100.00
20043;BME280;10182;52.896;6.496;2023-05-23T11:16:23;102136.94;;;12.73;100.00
20043;BME280;10182;52.896;6.496;2023-05-23T11:21:28;102130.19;;;13.15;100.00
20043;BME280;10182;52.896;6.496;2023-05-23T11:26:31;102139.66;;;13.24;100.00
20043;BME280;10182;52.896;6.496;2023-05-23T11:31:36;102144.91;;;13.00;100.00
20043;BME280;10182;52.896;6.496;2023-05-23T11:36:41;102134.78;;;12.84;100.00
20043;BME280;10182;52.896;6.496;2023-05-23T11:41:42;102142.94;;;13.05;100.00
20043;BME280;10182;52.896;6.496;2023-05-23T11:46:58;102133.75;;;12.89;100.00
20043;BME280;10182;52.896;6.496;2023-05-23T11:52:01;102142.06;;;12.52;100.00
20043;BME280;10182;52.896;6.496;2023-05-23T11:57:04;102160.28;;;12.90;100.00
20043;BME280;10182;52.896;6.496;2023-05-23T12:02:06;102153.69;;;13.02;100.00
20043;BME280;10182;52.896;6.496;2023-05-23T12:07:10;102146.81;;;12.96;100.00
20043;BME280;10182;52.896;6.496;2023-05-23T12:12:12;102149.03;;;13.09;100.00
20043;BME280;10182;52.896;6.496;2023-05-23T12:17:14;102159.03;;;13.02;100.00
20043;BME280;10182;52.896;6.496;2023-05-23T12:22:22;102165.31;;;12.99;100.00
20043;BME280;10182;52.896;6.496;2023-05-23T12:27:28;102168.81;;;13.27;100.00
20043;BME280;10182;52.896;6.496;2023-05-23T12:32:30;102161.13;;;13.17;100.00
20043;BME280;10182;52.896;6.496;2023-05-23T12:37:34;102171.94;;;12.88;100.00
20043;BME280;10182;52.896;6.496;2023-05-23T12:42:52;102173.72;;;12.87;100.00
20043;BME280;10182;52.896;6.496;2023-05-23T12:47:54;102170.91;;;13.17;100.00
20043;BME280;10182;52.896;6.496;2023-05-23T12:52:57;102169.59;;;13.03;100.00
20043;BME280;10182;52.896;6.496;2023-05-23T12:57:59;102171.53;;;13.50;100.00
20043;BME280;10182;52.896;6.496;2023-05-23T13:03:01;102175.69;;;13.07;100.00
20043;BME280;10182;52.896;6.496;2023-05-23T13:08:04;102168.44;;;13.12;100.00
20043;BME280;10182;52.896;6.496;2023-05-23T13:13:06;102160.19;;;13.45;100.00
20043;BME280;10182;52.896;6.496;2023-05-23T13:18:07;102162.47;;;13.56;100.00
20043;BME280;10182;52.896;6.496;2023-05-23T13:23:11;102185.34;;;13.85;100.00
20043;BME280;10182;52.896;6.496;2023-05-23T13:28:12;102185.09;;;13.68;100.00
20043;BME280;10182;52.896;6.496;2023-05-23T13:33:14;102187.28;;;13.31;100.00
20043;BME280;10182;52.896;6.496;2023-05-23T13:38:18;102188.59;;;13.45;100.00
20043;BME280;10182;52.896;6.496;2023-05-23T13:43:19;102195.47;;;13.25;100.00
20043;BME280;10182;52.896;6.496;2023-05-23T13:48:21;102193.22;;;12.88;100.00
20043;BME280;10182;52.896;6.496;2023-05-23T13:53:24;102187.84;;;12.89;100.00
20043;BME280;10182;52.896;6.496;2023-05-23T13:58:26;102181.38;;;12.69;100.00
20043;BME280;10182;52.896;6.496;2023-05-23T14:03:28;102184.81;;;12.73;100.00
20043;BME280;10182;52.896;6.496;2023-05-23T14:08:32;102181.63;;;12.62;100.00
20043;BME280;10182;52.896;6.496;2023-05-23T14:13:33;102184.69;;;12.76;100.00
20043;BME280;10182;52.896;6.496;2023-05-23T14:18:35;102184.84;;;12.98;100.00
20043;BME280;10182;52.896;6.496;2023-05-23T14:23:38;102177.06;;;13.19;100.00
20043;BME280;10182;52.896;6.496;2023-05-23T14:28:40;102193.53;;;13.56;100.00
20043;BME280;10182;52.896;6.496;2023-05-23T14:33:42;102178.34;;;13.83;100.00
20043;BME280;10182;52.896;6.496;2023-05-23T14:38:45;102197.28;;;13.75;100.00
20043;BME280;10182;52.896;6.496;2023-05-23T14:43:47;102196.34;;;13.76;100.00
20043;BME280;10182;52.896;6.496;2023-05-23T14:48:49;102198.50;;;13.90;100.00
20043;BME280;10182;52.896;6.496;2023-05-23T14:53:52;102197.50;;;14.16;100.00
20043;BME280;10182;52.896;6.496;2023-05-23T14:58:53;102201.31;;;13.85;100.00
20043;BME280;10182;52.896;6.496;2023-05-23T15:03:56;102210.13;;;14.11;98.12
20043;BME280;10182;52.896;6.496;2023-05-23T15:08:59;102204.31;;;13.76;100.00
20043;BME280;10182;52.896;6.496;2023-05-23T15:14:02;102215.44;;;13.39;100.00
20043;BME280;10182;52.896;6.496;2023-05-23T15:19:04;102213.00;;;13.31;100.00
20043;BME280;10182;52.896;6.496;2023-05-23T15:24:10;102228.25;;;13.52;94.96
20043;BME280;10182;52.896;6.496;2023-05-23T15:29:12;102217.41;;;13.32;100.00
20043;BME280;10182;52.896;6.496;2023-05-23T15:34:16;102219.22;;;13.04;100.00
20043;BME280;10182;52.896;6.496;2023-05-23T15:39:19;102226.53;;;12.98;100.00
20043;BME280;10182;52.896;6.496;2023-05-23T15:44:21;102218.78;;;12.92;100.00
20043;BME280;10182;52.896;6.496;2023-05-23T15:49:23;102226.78;;;12.63;100.00
20043;BME280;10182;52.896;6.496;2023-05-23T15:54:26;102223.22;;;12.63;100.00
20043;BME280;10182;52.896;6.496;2023-05-23T15:59:27;102215.88;;;12.71;100.00
20043;BME280;10182;52.896;6.496;2023-05-23T16:04:30;102218.34;;;12.77;100.00
20043;BME280;10182;52.896;6.496;2023-05-23T16:09:33;102232.38;;;12.54;100.00
20043;BME280;10182;52.896;6.496;2023-05-23T16:14:35;102238.53;;;12.26;100.00
20043;BME280;10182;52.896;6.496;2023-05-23T16:19:37;102236.56;;;12.33;100.00
20043;BME280;10182;52.896;6.496;2023-05-23T16:24:40;102228.34;;;12.41;100.00
20043;BME280;10182;52.896;6.496;2023-05-23T16:29:41;102248.66;;;12.13;100.00
20043;BME280;10182;52.896;6.496;2023-05-23T16:34:43;102239.75;;;11.83;100.00
20043;BME280;10182;52.896;6.496;2023-05-23T16:39:46;102241.31;;;12.22;100.00
20043;BME280;10182;52.896;6.496;2023-05-23T16:44:48;102242.66;;;11.74;100.00
20043;BME280;10182;52.896;6.496;2023-05-23T16:49:50;102241.84;;;11.72;100.00
20043;BME280;10182;52.896;6.496;2023-05-23T16:54:53;102232.59;;;11.87;100.00
20043;BME280;10182;52.896;6.496;2023-05-23T16:59:55;102236.88;;;11.91;100.00
20043;BME280;10182;52.896;6.496;2023-05-23T17:04:57;102238.69;;;11.57;100.00
20043;BME280;10182;52.896;6.496;2023-05-23T17:10:00;102243.16;;;11.22;100.00
20043;BME280;10182;52.896;6.496;2023-05-23T17:15:02;102232.22;;;11.34;100.00
20043;BME280;10182;52.896;6.496;2023-05-23T17:20:07;102235.22;;;11.54;100.00
20043;BME280;10182;52.896;6.496;2023-05-23T17:25:11;102246.34;;;11.68;100.00
20043;BME280;10182;52.896;6.496;2023-05-23T17:30:13;102244.44;;;11.73;100.00
20043;BME280;10182;52.896;6.496;2023-05-23T17:35:17;102242.25;;;11.56;100.00
20043;BME280;10182;52.896;6.496;2023-05-23T17:40:20;102251.25;;;11.50;100.00
20043;BME280;10182;52.896;6.496;2023-05-23T17:45:22;102254.13;;;11.43;100.00
20043;BME280;10182;52.896;6.496;2023-05-23T17:50:24;102254.50;;;11.27;100.00
20043;BME280;10182;52.896;6.496;2023-05-23T17:55:27;102266.09;;;11.23;100.00
20043;BME280;10182;52.896;6.496;2023-05-23T18:00:28;102250.31;;;11.18;100.00
20043;BME280;10182;52.896;6.496;2023-05-23T18:05:30;102246.72;;;11.21;100.00
20043;BME280;10182;52.896;6.496;2023-05-23T18:16:32;102263.69;;;11.12;100.00
20043;BME280;10182;52.896;6.496;2023-05-23T18:21:34;102270.75;;;11.13;100.00
20043;BME280;10182;52.896;6.496;2023-05-23T18:26:35;102268.09;;;11.13;100.00
20043;BME280;10182;52.896;6.496;2023-05-23T18:31:43;102269.06;;;11.11;100.00
20043;BME280;10182;52.896;6.496;2023-05-23T18:36:45;102272.00;;;10.98;100.00
20043;BME280;10182;52.896;6.496;2023-05-23T18:41:46;102274.78;;;10.94;100.00
20043;BME280;10182;52.896;6.496;2023-05-23T18:46:49;102276.91;;;10.78;100.00
20043;BME280;10182;52.896;6.496;2023-05-23T18:51:51;102280.03;;;10.56;100.00
20043;BME280;10182;52.896;6.496;2023-05-23T18:56:53;102280.50;;;10.35;100.00
20043;BME280;10182;52.896;6.496;2023-05-23T19:01:56;102289.16;;;10.43;100.00
20043;BME280;10182;52.896;6.496;2023-05-23T19:06:59;102284.03;;;10.33;100.00
20043;BME280;10182;52.896;6.496;2023-05-23T19:12:01;102287.78;;;10.23;100.00
20043;BME280;10182;52.896;6.496;2023-05-23T19:17:04;102291.59;;;10.08;100.00
20043;BME280;10182;52.896;6.496;2023-05-23T19:22:06;102303.09;;;10.09;100.00
20043;BME280;10182;52.896;6.496;2023-05-23T19:27:08;102309.41;;;10.00;100.00
20043;BME280;10182;52.896;6.496;2023-05-23T19:32:12;102310.47;;;9.91;100.00
20043;BME280;10182;52.896;6.496;2023-05-23T19:37:14;102310.50;;;9.90;100.00
20043;BME280;10182;52.896;6.496;2023-05-23T19:42:15;102320.44;;;9.77;100.00
20043;BME280;10182;52.896;6.496;2023-05-23T19:47:18;102324.94;;;9.73;100.00
20043;BME280;10182;52.896;6.496;2023-05-23T19:52:20;102324.94;;;9.73;100.00
20043;BME280;10182;52.896;6.496;2023-05-23T19:57:22;102321.31;;;9.77;100.00
20043;BME280;10182;52.896;6.496;2023-05-23T20:02:26;102323.00;;;9.80;100.00
20043;BME280;10182;52.896;6.496;2023-05-23T20:07:28;102316.94;;;9.76;100.00
20043;BME280;10182;52.896;6.496;2023-05-23T20:12:30;102333.69;;;9.75;100.00
20043;BME280;10182;52.896;6.496;2023-05-23T20:17:33;102329.44;;;9.67;100.00
20043;BME280;10182;52.896;6.496;2023-05-23T20:22:35;102325.97;;;9.63;100.00
20043;BME280;10182;52.896;6.496;2023-05-23T20:27:37;102323.47;;;9.54;100.00
20043;BME280;10182;52.896;6.496;2023-05-23T20:32:59;102317.38;;;9.52;100.00
20043;BME280;10182;52.896;6.496;2023-05-23T20:38:01;102326.28;;;9.46;100.00
20043;BME280;10182;52.896;6.496;2023-05-23T20:43:03;102319.28;;;9.40;100.00
20043;BME280;10182;52.896;6.496;2023-05-23T20:48:06;102332.78;;;9.25;100.00
20043;BME280;10182;52.896;6.496;2023-05-23T20:53:08;102332.06;;;9.15;100.00
20043;BME280;10182;52.896;6.496;2023-05-23T20:58:10;102319.03;;;9.03;100.00
20043;BME280;10182;52.896;6.496;2023-05-23T21:03:13;102321.88;;;8.89;100.00
20043;BME280;10182;52.896;6.496;2023-05-23T21:08:15;102329.91;;;8.81;100.00
20043;BME280;10182;52.896;6.496;2023-05-23T21:13:16;102319.44;;;8.75;100.00
20043;BME280;10182;52.896;6.496;2023-05-23T21:18:20;102319.47;;;8.70;100.00
20043;BME280;10182;52.896;6.496;2023-05-23T21:23:22;102325.75;;;8.63;100.00
20043;BME280;10182;52.896;6.496;2023-05-23T21:28:23;102326.72;;;8.57;100.00
20043;BME280;10182;52.896;6.496;2023-05-23T21:33:26;102322.38;;;8.52;100.00
20043;BME280;10182;52.896;6.496;2023-05-23T21:38:29;102326.84;;;8.43;100.00
20043;BME280;10182;52.896;6.496;2023-05-23T21:43:32;102331.28;;;8.40;100.00
20043;BME280;10182;52.896;6.496;2023-05-23T21:48:35;102340.16;;;8.36;100.00
20043;BME280;10182;52.896;6.496;2023-05-23T21:53:36;102335.91;;;8.21;100.00
20043;BME280;10182;52.896;6.496;2023-05-23T21:58:38;102325.41;;;8.14;100.00
20043;BME280;10182;52.896;6.496;2023-05-23T22:03:42;102333.47;;;8.04;100.00
20043;BME280;10182;52.896;6.496;2023-05-23T22:08:43;102323.00;;;7.94;100.00
20043;BME280;10182;52.896;6.496;2023-05-23T22:13:45;102319.56;;;7.88;100.00
20043;BME280;10182;52.896;6.496;2023-05-23T22:18:49;102309.88;;;7.87;100.00
20043;BME280;10182;52.896;6.496;2023-05-23T22:23:50;102309.97;;;7.77;100.00
20043;BME280;10182;52.896;6.496;2023-05-23T22:28:52;102312.72;;;7.68;100.00
20043;BME280;10182;52.896;6.496;2023-05-23T22:33:55;102313.66;;;7.64;100.00
20043;BME280;10182;52.896;6.496;2023-05-23T22:38:57;102310.16;;;7.60;100.00
20043;BME280;10182;52.896;6.496;2023-05-23T22:44:01;102314.56;;;7.58;100.00
20043;BME280;10182;52.896;6.496;2023-05-23T22:49:04;102316.38;;;7.50;100.00
20043;BME280;10182;52.896;6.496;2023-05-23T22:54:06;102319.94;;;7.46;100.00
20043;BME280;10182;52.896;6.496;2023-05-23T22:59:07;102319.09;;;7.39;100.00
20043;BME280;10182;52.896;6.496;2023-05-23T23:04:11;102314.84;;;7.26;100.00
20043;BME280;10182;52.896;6.496;2023-05-23T23:14:53;102305.22;;;7.22;100.00
20043;BME280;10182;52.896;6.496;2023-05-23T23:19:56;102306.09;;;7.19;100.00
20043;BME280;10182;52.896;6.496;2023-05-23T23:24:58;102313.19;;;7.11;100.00
20043;BME280;10182;52.896;6.496;2023-05-23T23:30:01;102307.94;;;7.08;100.00
20043;BME280;10182;52.896;6.496;2023-05-23T23:35:05;102300.03;;;7.11;100.00
20043;BME280;10182;52.896;6.496;2023-05-23T23:40:08;102297.41;;;7.05;100.00
20043;BME280;10182;52.896;6.496;2023-05-23T23:45:10;102288.69;;;6.98;100.00
20043;BME280;10182;52.896;6.496;2023-05-23T23:50:13;102294.84;;;6.99;100.00
20043;BME280;10182;52.896;6.496;2023-05-23T23:55:15;102300.03;;;7.06;100.00
